createdAt,value
2019-03-27T00:00:31.615Z,1026.50
2019-03-27T00:01:31.606Z,1026.45
2019-03-27T00:02:31.603Z,1026.45
2019-03-27T00:03:31.604Z,1026.49
2019-03-27T00:04:31.618Z,1026.45
2019-03-27T00:05:31.586Z,1026.44
2019-03-27T00:06:31.593Z,1026.41
2019-03-27T00:07:31.588Z,1026.43
2019-03-27T00:08:31.581Z,1026.43
2019-03-27T00:09:31.559Z,1026.44
2019-03-27T00:10:31.565Z,1026.44
2019-03-27T00:11:31.582Z,1026.49
2019-03-27T00:12:31.554Z,1026.50
2019-03-27T00:13:31.541Z,1026.49
2019-03-27T00:14:31.524Z,1026.49
2019-03-27T00:15:31.527Z,1026.48
2019-03-27T00:16:31.531Z,1026.51
2019-03-27T00:17:31.723Z,1026.50
2019-03-27T00:18:31.711Z,1026.51
2019-03-27T00:19:31.711Z,1026.50
2019-03-27T00:20:31.498Z,1026.52
2019-03-27T00:21:31.511Z,1026.53
2019-03-27T00:22:31.484Z,1026.52
2019-03-27T00:23:31.488Z,1026.53
2019-03-27T00:24:31.462Z,1026.53
2019-03-27T00:25:31.674Z,1026.53
2019-03-27T00:26:31.464Z,1026.58
2019-03-27T00:27:31.460Z,1026.50
2019-03-27T00:28:31.440Z,1026.50
2019-03-27T00:29:31.442Z,1026.51
2019-03-27T00:30:31.422Z,1026.51
2019-03-27T00:31:31.415Z,1026.53
2019-03-27T00:32:31.417Z,1026.56
2019-03-27T00:33:31.609Z,1026.56
2019-03-27T00:34:31.407Z,1026.53
2019-03-27T00:35:31.392Z,1026.52
2019-03-27T00:36:31.384Z,1026.53
2019-03-27T00:37:31.395Z,1026.48
2019-03-27T00:38:31.581Z,1026.45
2019-03-27T00:39:31.583Z,1026.44
2019-03-27T00:40:31.376Z,1026.44
2019-03-27T00:41:31.356Z,1026.46
2019-03-27T00:42:31.352Z,1026.46
2019-03-27T00:43:31.552Z,1026.47
2019-03-27T00:44:31.341Z,1026.48
2019-03-27T00:45:31.326Z,1026.46
2019-03-27T00:46:31.323Z,1026.42
2019-03-27T00:47:31.348Z,1026.43
2019-03-27T00:48:31.323Z,1026.38
2019-03-27T00:49:31.507Z,1026.40
2019-03-27T00:50:31.330Z,1026.43
2019-03-27T00:51:31.290Z,1026.42
2019-03-27T00:52:31.288Z,1026.47
2019-03-27T00:53:31.293Z,1026.46
2019-03-27T00:54:31.271Z,1026.49
2019-03-27T00:55:31.285Z,1026.47
2019-03-27T00:56:31.269Z,1026.47
2019-03-27T00:57:31.251Z,1026.51
2019-03-27T00:58:31.274Z,1026.50
2019-03-27T00:59:31.446Z,1026.48
2019-03-27T01:00:31.449Z,1026.48
2019-03-27T01:01:31.440Z,1026.48
2019-03-27T01:02:31.227Z,1026.49
2019-03-27T01:03:31.212Z,1026.52
2019-03-27T01:04:31.225Z,1026.55
2019-03-27T01:05:31.230Z,1026.50
2019-03-27T01:06:31.208Z,1026.52
2019-03-27T01:07:31.186Z,1026.47
2019-03-27T01:08:31.201Z,1026.48
2019-03-27T01:09:31.179Z,1026.45
2019-03-27T01:10:31.271Z,1026.43
2019-03-27T01:11:31.162Z,1026.39
2019-03-27T01:12:31.161Z,1026.37
2019-03-27T01:13:31.153Z,1026.36
2019-03-27T01:14:31.159Z,1026.35
2019-03-27T01:15:39.848Z,1026.37
2019-03-27T01:16:31.142Z,1026.36
2019-03-27T01:17:31.128Z,1026.38
2019-03-27T01:18:31.121Z,1026.37
2019-03-27T01:19:31.116Z,1026.37
2019-03-27T01:20:31.127Z,1026.35
2019-03-27T01:21:31.098Z,1026.35
2019-03-27T01:22:31.098Z,1026.33
2019-03-27T01:23:31.097Z,1026.32
2019-03-27T01:24:31.098Z,1026.36
2019-03-27T01:25:31.106Z,1026.38
2019-03-27T01:26:31.072Z,1026.40
2019-03-27T01:27:31.065Z,1026.40
2019-03-27T01:28:31.086Z,1026.39
2019-03-27T01:29:31.051Z,1026.43
2019-03-27T01:30:31.075Z,1026.42
2019-03-27T01:31:31.246Z,1026.44
2019-03-27T01:32:31.029Z,1026.44
2019-03-27T01:33:31.023Z,1026.39
2019-03-27T01:34:31.024Z,1026.36
2019-03-27T01:35:31.012Z,1026.39
2019-03-27T01:36:31.210Z,1026.41
2019-03-27T01:37:31.011Z,1026.39
2019-03-27T01:38:31.202Z,1026.36
2019-03-27T01:39:30.991Z,1026.38
2019-03-27T01:40:31.185Z,1026.37
2019-03-27T01:41:30.973Z,1026.37
2019-03-27T01:42:31.167Z,1026.35
2019-03-27T01:43:31.175Z,1026.35
2019-03-27T01:44:31.167Z,1026.34
2019-03-27T01:45:30.956Z,1026.34
2019-03-27T01:46:31.172Z,1026.35
2019-03-27T01:47:30.933Z,1026.39
2019-03-27T01:48:30.925Z,1026.41
2019-03-27T01:49:30.918Z,1026.44
2019-03-27T01:50:30.916Z,1026.46
2019-03-27T01:51:30.920Z,1026.42
2019-03-27T01:52:31.118Z,1026.40
2019-03-27T01:53:30.921Z,1026.40
2019-03-27T01:54:30.889Z,1026.40
2019-03-27T01:55:30.898Z,1026.39
2019-03-27T01:56:31.085Z,1026.41
2019-03-27T01:57:31.069Z,1026.47
2019-03-27T01:58:31.065Z,1026.49
2019-03-27T01:59:30.857Z,1026.49
2019-03-27T02:00:30.846Z,1026.49
2019-03-27T02:01:31.057Z,1026.48
2019-03-27T02:02:31.047Z,1026.50
2019-03-27T02:03:30.826Z,1026.46
2019-03-27T02:04:30.817Z,1026.43
2019-03-27T02:05:30.811Z,1026.46
2019-03-27T02:06:30.823Z,1026.48
2019-03-27T02:07:30.830Z,1026.51
2019-03-27T02:08:30.802Z,1026.54
2019-03-27T02:09:30.786Z,1026.57
2019-03-27T02:10:30.807Z,1026.55
2019-03-27T02:11:31.001Z,1026.52
2019-03-27T02:12:30.773Z,1026.53
2019-03-27T02:13:30.788Z,1026.49
2019-03-27T02:14:30.772Z,1026.49
2019-03-27T02:15:30.972Z,1026.52
2019-03-27T02:16:30.745Z,1026.51
2019-03-27T02:17:30.743Z,1026.53
2019-03-27T02:18:30.928Z,1026.53
2019-03-27T02:19:30.748Z,1026.51
2019-03-27T02:20:30.713Z,1026.47
2019-03-27T02:21:30.905Z,1026.47
2019-03-27T02:22:30.703Z,1026.44
2019-03-27T02:23:30.691Z,1026.42
2019-03-27T02:24:30.761Z,1026.39
2019-03-27T02:25:30.685Z,1026.43
2019-03-27T02:26:30.673Z,1026.39
2019-03-27T02:27:30.678Z,1026.44
2019-03-27T02:28:30.677Z,1026.41
2019-03-27T02:29:30.651Z,1026.43
2019-03-27T02:30:30.646Z,1026.42
2019-03-27T02:31:30.637Z,1026.40
2019-03-27T02:32:30.642Z,1026.43
2019-03-27T02:33:30.640Z,1026.40
2019-03-27T02:34:30.835Z,1026.44
2019-03-27T02:35:30.630Z,1026.42
2019-03-27T02:36:30.610Z,1026.42
2019-03-27T02:37:30.805Z,1026.39
2019-03-27T02:38:30.601Z,1026.41
2019-03-27T02:39:30.789Z,1026.42
2019-03-27T02:40:30.589Z,1026.40
2019-03-27T02:41:30.604Z,1026.42
2019-03-27T02:42:30.573Z,1026.38
2019-03-27T02:43:30.554Z,1026.40
2019-03-27T02:44:30.550Z,1026.40
2019-03-27T02:45:30.552Z,1026.40
2019-03-27T02:46:30.539Z,1026.40
2019-03-27T02:47:30.532Z,1026.43
2019-03-27T02:48:30.552Z,1026.37
2019-03-27T02:49:30.518Z,1026.39
2019-03-27T02:50:30.518Z,1026.36
2019-03-27T02:51:30.533Z,1026.32
2019-03-27T02:52:30.521Z,1026.35
2019-03-27T02:53:30.504Z,1026.33
2019-03-27T02:54:30.495Z,1026.32
2019-03-27T02:55:30.474Z,1026.30
2019-03-27T02:56:30.677Z,1026.32
2019-03-27T02:57:30.462Z,1026.31
2019-03-27T02:58:30.661Z,1026.31
2019-03-27T02:59:30.454Z,1026.31
2019-03-27T03:00:30.447Z,1026.32
2019-03-27T03:01:30.671Z,1026.29
2019-03-27T03:02:30.641Z,1026.30
2019-03-27T03:03:30.467Z,1026.28
2019-03-27T03:04:30.647Z,1026.26
2019-03-27T03:05:30.422Z,1026.25
2019-03-27T03:06:30.421Z,1026.25
2019-03-27T03:07:30.396Z,1026.25
2019-03-27T03:08:30.388Z,1026.25
2019-03-27T03:09:30.587Z,1026.23
2019-03-27T03:10:30.380Z,1026.22
2019-03-27T03:11:30.368Z,1026.26
2019-03-27T03:12:30.390Z,1026.25
2019-03-27T03:13:30.367Z,1026.26
2019-03-27T03:14:30.563Z,1026.19
2019-03-27T03:15:30.552Z,1026.18
2019-03-27T03:16:41.972Z,1026.16
2019-03-27T03:17:30.335Z,1026.18
2019-03-27T03:18:30.334Z,1026.17
2019-03-27T03:19:30.324Z,1026.19
2019-03-27T03:20:30.323Z,1026.16
2019-03-27T03:21:30.312Z,1026.16
2019-03-27T03:22:30.294Z,1026.18
2019-03-27T03:23:30.509Z,1026.17
2019-03-27T03:24:30.286Z,1026.17
2019-03-27T03:25:30.285Z,1026.16
2019-03-27T03:26:30.464Z,1026.22
2019-03-27T03:27:30.266Z,1026.21
2019-03-27T03:28:30.264Z,1026.26
2019-03-27T03:29:30.245Z,1026.26
2019-03-27T03:30:30.253Z,1026.23
2019-03-27T03:31:30.267Z,1026.23
2019-03-27T03:32:30.222Z,1026.27
2019-03-27T03:33:30.221Z,1026.28
2019-03-27T03:34:30.217Z,1026.29
2019-03-27T03:35:30.218Z,1026.31
2019-03-27T03:36:30.198Z,1026.36
2019-03-27T03:37:30.186Z,1026.38
2019-03-27T03:38:30.184Z,1026.40
2019-03-27T03:39:30.171Z,1026.38
2019-03-27T03:40:30.171Z,1026.39
2019-03-27T03:41:30.157Z,1026.37
2019-03-27T03:42:30.158Z,1026.38
2019-03-27T03:43:30.378Z,1026.40
2019-03-27T03:44:30.155Z,1026.39
2019-03-27T03:45:30.137Z,1026.41
2019-03-27T03:46:30.130Z,1026.50
2019-03-27T03:47:30.135Z,1026.55
2019-03-27T03:48:30.312Z,1026.56
2019-03-27T03:49:30.323Z,1026.56
2019-03-27T03:50:30.098Z,1026.54
2019-03-27T03:51:30.102Z,1026.54
2019-03-27T03:52:30.080Z,1026.56
2019-03-27T03:53:30.075Z,1026.55
2019-03-27T03:54:30.072Z,1026.55
2019-03-27T03:55:30.063Z,1026.58
2019-03-27T03:56:30.252Z,1026.58
2019-03-27T03:57:30.068Z,1026.56
2019-03-27T03:58:30.053Z,1026.58
2019-03-27T03:59:30.253Z,1026.56
2019-03-27T04:00:30.190Z,1026.55
2019-03-27T04:01:30.013Z,1026.57
2019-03-27T04:02:30.003Z,1026.56
2019-03-27T04:03:30.000Z,1026.56
2019-03-27T04:04:30.000Z,1026.59
2019-03-27T04:05:30.028Z,1026.62
2019-03-27T04:06:29.980Z,1026.63
2019-03-27T04:07:29.983Z,1026.67
2019-03-27T04:08:29.971Z,1026.62
2019-03-27T04:09:29.964Z,1026.59
2019-03-27T04:10:29.967Z,1026.63
2019-03-27T04:11:29.949Z,1026.58
2019-03-27T04:12:29.936Z,1026.62
2019-03-27T04:13:29.933Z,1026.64
2019-03-27T04:14:30.122Z,1026.65
2019-03-27T04:15:29.915Z,1026.68
2019-03-27T04:16:29.911Z,1026.71
2019-03-27T04:17:29.895Z,1026.70
2019-03-27T04:18:29.887Z,1026.68
2019-03-27T04:19:29.883Z,1026.72
2019-03-27T04:20:29.877Z,1026.75
2019-03-27T04:21:29.869Z,1026.77
2019-03-27T04:22:30.074Z,1026.78
2019-03-27T04:23:30.072Z,1026.81
2019-03-27T04:24:29.844Z,1026.88
2019-03-27T04:25:30.063Z,1026.87
2019-03-27T04:26:33.390Z,1026.91
2019-03-27T04:27:29.825Z,1026.87
2019-03-27T04:28:29.820Z,1026.89
2019-03-27T04:29:30.010Z,1026.91
2019-03-27T04:30:29.800Z,1026.89
2019-03-27T04:31:29.792Z,1026.88
2019-03-27T04:32:29.787Z,1026.90
2019-03-27T04:33:29.779Z,1026.93
2019-03-27T04:34:29.976Z,1026.93
2019-03-27T04:35:29.770Z,1026.97
2019-03-27T04:36:29.959Z,1026.97
2019-03-27T04:37:29.764Z,1026.99
2019-03-27T04:38:29.742Z,1026.99
2019-03-27T04:39:29.727Z,1026.99
2019-03-27T04:40:29.730Z,1027.00
2019-03-27T04:41:29.725Z,1026.99
2019-03-27T04:42:29.913Z,1027.03
2019-03-27T04:43:29.717Z,1027.02
2019-03-27T04:44:29.700Z,1027.03
2019-03-27T04:45:29.694Z,1027.01
2019-03-27T04:46:29.676Z,1027.00
2019-03-27T04:47:32.339Z,1026.97
2019-03-27T04:48:29.685Z,1027.00
2019-03-27T04:49:29.672Z,1026.99
2019-03-27T04:50:29.652Z,1027.01
2019-03-27T04:51:29.857Z,1027.02
2019-03-27T04:52:29.642Z,1026.97
2019-03-27T04:53:29.640Z,1027.00
2019-03-27T04:54:29.824Z,1027.02
2019-03-27T04:55:29.613Z,1026.98
2019-03-27T04:56:29.618Z,1027.02
2019-03-27T04:57:29.804Z,1026.98
2019-03-27T04:58:29.800Z,1027.02
2019-03-27T04:59:29.583Z,1026.97
2019-03-27T05:00:29.783Z,1026.99
2019-03-27T05:01:29.582Z,1027.00
2019-03-27T05:02:29.573Z,1026.98
2019-03-27T05:03:29.551Z,1026.98
2019-03-27T05:04:29.563Z,1026.95
2019-03-27T05:05:29.557Z,1026.98
2019-03-27T05:06:29.535Z,1027.02
2019-03-27T05:07:29.528Z,1027.02
2019-03-27T05:08:29.739Z,1027.01
2019-03-27T05:09:29.517Z,1027.01
2019-03-27T05:10:29.511Z,1026.96
2019-03-27T05:11:29.508Z,1026.97
2019-03-27T05:12:29.501Z,1027.02
2019-03-27T05:13:29.477Z,1027.05
2019-03-27T05:14:29.474Z,1027.07
2019-03-27T05:15:29.467Z,1027.10
2019-03-27T05:16:29.474Z,1027.07
2019-03-27T05:17:29.485Z,1027.13
2019-03-27T05:18:29.445Z,1027.10
2019-03-27T05:19:29.442Z,1027.11
2019-03-27T05:20:29.436Z,1027.06
2019-03-27T05:21:29.429Z,1027.05
2019-03-27T05:22:29.420Z,1027.03
2019-03-27T05:23:29.440Z,1027.04
2019-03-27T05:24:29.415Z,1026.97
2019-03-27T05:25:29.409Z,1026.99
2019-03-27T05:26:29.406Z,1027.00
2019-03-27T05:27:29.402Z,1026.98
2019-03-27T05:28:29.379Z,1027.03
2019-03-27T05:29:29.364Z,1027.02
2019-03-27T05:30:29.375Z,1027.01
2019-03-27T05:31:29.361Z,1027.01
2019-03-27T05:32:29.553Z,1027.03
2019-03-27T05:33:32.582Z,1027.03
2019-03-27T05:34:29.341Z,1027.07
2019-03-27T05:35:29.335Z,1027.03
2019-03-27T05:36:29.327Z,1027.09
2019-03-27T05:37:29.312Z,1027.10
2019-03-27T05:38:29.324Z,1027.15
2019-03-27T05:39:29.292Z,1027.18
2019-03-27T05:40:29.326Z,1027.18
2019-03-27T05:41:29.298Z,1027.22
2019-03-27T05:42:29.278Z,1027.21
2019-03-27T05:43:29.266Z,1027.24
2019-03-27T05:44:29.276Z,1027.25
2019-03-27T05:45:29.257Z,1027.24
2019-03-27T05:46:29.252Z,1027.26
2019-03-27T05:47:29.237Z,1027.32
2019-03-27T05:48:29.244Z,1027.35
2019-03-27T05:49:29.245Z,1027.31
2019-03-27T05:50:29.425Z,1027.35
2019-03-27T05:51:29.224Z,1027.34
2019-03-27T05:52:29.203Z,1027.38
2019-03-27T05:53:29.256Z,1027.35
2019-03-27T05:54:29.191Z,1027.40
2019-03-27T05:55:29.390Z,1027.41
2019-03-27T05:56:29.180Z,1027.40
2019-03-27T05:57:29.185Z,1027.40
2019-03-27T05:58:29.362Z,1027.44
2019-03-27T05:59:29.363Z,1027.42
2019-03-27T06:00:29.157Z,1027.45
2019-03-27T06:01:29.357Z,1027.51
2019-03-27T06:02:29.157Z,1027.49
2019-03-27T06:03:29.125Z,1027.50
2019-03-27T06:04:29.120Z,1027.57
2019-03-27T06:05:29.145Z,1027.56
2019-03-27T06:06:29.127Z,1027.57
2019-03-27T06:07:29.117Z,1027.59
2019-03-27T06:08:29.101Z,1027.61
2019-03-27T06:09:29.100Z,1027.65
2019-03-27T06:10:29.133Z,1027.62
2019-03-27T06:11:29.107Z,1027.62
2019-03-27T06:12:29.099Z,1027.63
2019-03-27T06:13:29.082Z,1027.62
2019-03-27T06:14:29.070Z,1027.63
2019-03-27T06:15:29.273Z,1027.61
2019-03-27T06:16:29.073Z,1027.61
2019-03-27T06:17:29.246Z,1027.63
2019-03-27T06:18:29.288Z,1027.62
2019-03-27T06:19:29.021Z,1027.62
2019-03-27T06:20:29.005Z,1027.60
2019-03-27T06:21:28.998Z,1027.60
2019-03-27T06:22:29.014Z,1027.61
2019-03-27T06:23:29.008Z,1027.59
2019-03-27T06:24:28.988Z,1027.60
2019-03-27T06:25:28.980Z,1027.61
2019-03-27T06:26:29.171Z,1027.59
2019-03-27T06:27:28.957Z,1027.64
2019-03-27T06:28:29.156Z,1027.64
2019-03-27T06:29:28.945Z,1027.67
2019-03-27T06:30:28.936Z,1027.65
2019-03-27T06:31:28.934Z,1027.67
2019-03-27T06:32:28.924Z,1027.65
2019-03-27T06:33:29.123Z,1027.62
2019-03-27T06:34:28.911Z,1027.65
2019-03-27T06:35:28.908Z,1027.62
2019-03-27T06:36:28.894Z,1027.66
2019-03-27T06:37:29.120Z,1027.69
2019-03-27T06:38:28.894Z,1027.71
2019-03-27T06:39:28.873Z,1027.69
2019-03-27T06:40:29.077Z,1027.76
2019-03-27T06:41:28.865Z,1027.72
2019-03-27T06:42:28.851Z,1027.74
2019-03-27T06:43:28.847Z,1027.76
2019-03-27T06:44:28.839Z,1027.76
2019-03-27T06:45:28.841Z,1027.78
2019-03-27T06:46:28.840Z,1027.75
2019-03-27T06:47:28.818Z,1027.78
2019-03-27T06:48:28.815Z,1027.81
2019-03-27T06:49:28.809Z,1027.81
2019-03-27T06:50:28.797Z,1027.82
2019-03-27T06:51:39.402Z,1027.84
2019-03-27T06:52:28.783Z,1027.87
2019-03-27T06:53:28.778Z,1027.89
2019-03-27T06:54:28.771Z,1027.85
2019-03-27T06:55:28.770Z,1027.82
2019-03-27T06:56:28.757Z,1027.86
2019-03-27T06:57:28.750Z,1027.86
2019-03-27T06:58:28.949Z,1027.88
2019-03-27T06:59:28.737Z,1027.89
2019-03-27T07:00:28.727Z,1027.91
2019-03-27T07:01:28.738Z,1027.93
2019-03-27T07:02:29.078Z,1027.92
2019-03-27T07:03:28.708Z,1027.91
2019-03-27T07:04:28.720Z,1027.93
2019-03-27T07:05:28.704Z,1027.93
2019-03-27T07:06:28.693Z,1027.92
2019-03-27T07:07:28.691Z,1027.95
2019-03-27T07:08:28.695Z,1028.03
2019-03-27T07:09:28.880Z,1028.04
2019-03-27T07:10:28.663Z,1028.04
2019-03-27T07:11:28.662Z,1028.14
2019-03-27T07:12:28.662Z,1028.06
2019-03-27T07:13:28.645Z,1028.03
2019-03-27T07:14:28.641Z,1028.10
2019-03-27T07:15:28.829Z,1028.04
2019-03-27T07:16:28.824Z,1028.08
2019-03-27T07:17:28.618Z,1028.13
2019-03-27T07:18:39.451Z,1028.15
2019-03-27T07:19:28.617Z,1028.19
2019-03-27T07:20:28.816Z,1028.17
2019-03-27T07:21:28.797Z,1028.19
2019-03-27T07:22:28.788Z,1028.14
2019-03-27T07:23:28.578Z,1028.17
2019-03-27T07:24:28.596Z,1028.18
2019-03-27T07:25:28.583Z,1028.19
2019-03-27T07:26:28.562Z,1028.20
2019-03-27T07:27:28.768Z,1028.21
2019-03-27T07:28:28.547Z,1028.21
2019-03-27T07:29:28.745Z,1028.20
2019-03-27T07:30:28.535Z,1028.22
2019-03-27T07:31:28.733Z,1028.29
2019-03-27T07:32:28.522Z,1028.23
2019-03-27T07:33:28.543Z,1028.20
2019-03-27T07:34:28.532Z,1028.19
2019-03-27T07:35:28.524Z,1028.16
2019-03-27T07:36:28.509Z,1028.17
2019-03-27T07:37:28.700Z,1028.15
2019-03-27T07:38:28.502Z,1028.15
2019-03-27T07:39:28.479Z,1028.17
2019-03-27T07:40:28.477Z,1028.18
2019-03-27T07:41:28.472Z,1028.21
2019-03-27T07:42:29.033Z,1028.21
2019-03-27T07:43:28.469Z,1028.21
2019-03-27T07:44:28.452Z,1028.17
2019-03-27T07:45:28.445Z,1028.19
2019-03-27T07:46:28.443Z,1028.21
2019-03-27T07:47:28.440Z,1028.22
2019-03-27T07:48:28.428Z,1028.29
2019-03-27T07:49:28.428Z,1028.27
2019-03-27T07:50:28.627Z,1028.30
2019-03-27T07:51:28.440Z,1028.33
2019-03-27T07:52:28.404Z,1028.42
2019-03-27T07:53:28.611Z,1028.44
2019-03-27T07:54:28.609Z,1028.38
2019-03-27T07:55:28.406Z,1028.34
2019-03-27T07:56:28.395Z,1028.42
2019-03-27T07:57:28.579Z,1028.35
2019-03-27T07:58:28.370Z,1028.32
2019-03-27T07:59:28.590Z,1028.29
2019-03-27T08:00:28.363Z,1028.29
2019-03-27T08:01:28.358Z,1028.31
2019-03-27T08:02:28.367Z,1028.30
2019-03-27T08:03:28.374Z,1028.39
2019-03-27T08:04:28.542Z,1028.40
2019-03-27T08:05:28.334Z,1028.38
2019-03-27T08:06:28.336Z,1028.30
2019-03-27T08:07:28.341Z,1028.28
2019-03-27T08:08:28.374Z,1028.29
2019-03-27T08:09:28.331Z,1028.27
2019-03-27T08:10:28.328Z,1028.31
2019-03-27T08:11:28.342Z,1028.26
2019-03-27T08:12:28.340Z,1028.26
2019-03-27T08:13:28.316Z,1028.30
2019-03-27T08:14:28.297Z,1028.29
2019-03-27T08:15:28.301Z,1028.37
2019-03-27T08:16:28.286Z,1028.30
2019-03-27T08:17:28.290Z,1028.37
2019-03-27T08:18:28.287Z,1028.32
2019-03-27T08:19:28.281Z,1028.28
2019-03-27T08:20:28.260Z,1028.35
2019-03-27T08:21:30.992Z,1028.50
2019-03-27T08:22:28.454Z,1028.41
2019-03-27T08:23:28.255Z,1028.34
2019-03-27T08:24:28.255Z,1028.32
2019-03-27T08:25:28.239Z,1028.32
2019-03-27T08:26:28.231Z,1028.51
2019-03-27T08:27:28.430Z,1028.60
2019-03-27T08:28:28.251Z,1028.67
2019-03-27T08:29:28.220Z,1028.60
2019-03-27T08:30:28.218Z,1028.61
2019-03-27T08:31:28.229Z,1028.58
2019-03-27T08:32:28.227Z,1028.58
2019-03-27T08:33:28.431Z,1028.50
2019-03-27T08:34:28.193Z,1028.45
2019-03-27T08:35:28.418Z,1028.37
2019-03-27T08:36:28.394Z,1028.40
2019-03-27T08:37:28.187Z,1028.39
2019-03-27T08:38:28.178Z,1028.38
2019-03-27T08:39:28.169Z,1028.41
2019-03-27T08:40:28.166Z,1028.50
2019-03-27T08:41:28.171Z,1028.54
2019-03-27T08:42:28.213Z,1028.47
2019-03-27T08:43:28.151Z,1028.46
2019-03-27T08:44:28.151Z,1028.47
2019-03-27T08:45:28.150Z,1028.48
2019-03-27T08:46:28.344Z,1028.46
2019-03-27T08:47:28.148Z,1028.41
2019-03-27T08:48:28.329Z,1028.42
2019-03-27T08:49:28.126Z,1028.46
2019-03-27T08:50:28.319Z,1028.50
2019-03-27T08:51:28.317Z,1028.54
2019-03-27T08:52:28.109Z,1028.54
2019-03-27T08:53:28.105Z,1028.54
2019-03-27T08:54:28.098Z,1028.49
2019-03-27T08:55:28.297Z,1028.49
2019-03-27T08:56:28.083Z,1028.52
2019-03-27T08:57:28.284Z,1028.51
2019-03-27T08:58:28.105Z,1028.52
2019-03-27T08:59:28.084Z,1028.57
2019-03-27T09:00:28.267Z,1028.51
2019-03-27T09:01:28.056Z,1028.53
2019-03-27T09:02:28.053Z,1028.55
2019-03-27T09:03:28.252Z,1028.54
2019-03-27T09:04:28.043Z,1028.59
2019-03-27T09:05:28.061Z,1028.61
2019-03-27T09:06:33.574Z,1028.64
2019-03-27T09:07:28.034Z,1028.63
2019-03-27T09:08:28.239Z,1028.63
2019-03-27T09:09:28.025Z,1028.63
2019-03-27T09:10:28.018Z,1028.61
2019-03-27T09:11:28.038Z,1028.59
2019-03-27T09:12:28.000Z,1028.59
2019-03-27T09:13:28.001Z,1028.59
2019-03-27T09:14:28.007Z,1028.58
2019-03-27T09:15:27.998Z,1028.63
2019-03-27T09:16:27.982Z,1028.61
2019-03-27T09:17:27.987Z,1028.62
2019-03-27T09:18:27.976Z,1028.63
2019-03-27T09:19:35.500Z,1028.66
2019-03-27T09:20:27.961Z,1028.61
2019-03-27T09:21:28.164Z,1028.58
2019-03-27T09:22:27.958Z,1028.59
2019-03-27T09:23:27.945Z,1028.59
2019-03-27T09:24:28.000Z,1028.58
2019-03-27T09:25:27.928Z,1028.62
2019-03-27T09:26:27.926Z,1028.65
2019-03-27T09:27:28.153Z,1028.61
2019-03-27T09:28:27.942Z,1028.63
2019-03-27T09:29:27.916Z,1028.61
2019-03-27T09:30:27.940Z,1028.62
2019-03-27T09:31:27.908Z,1028.65
2019-03-27T09:32:28.108Z,1028.63
2019-03-27T09:33:28.099Z,1028.63
2019-03-27T09:34:27.887Z,1028.68
2019-03-27T09:35:27.907Z,1028.66
2019-03-27T09:36:27.888Z,1028.65
2019-03-27T09:37:27.873Z,1028.64
2019-03-27T09:38:27.878Z,1028.67
2019-03-27T09:39:27.865Z,1028.65
2019-03-27T09:40:27.849Z,1028.65
2019-03-27T09:41:27.845Z,1028.65
2019-03-27T09:42:27.847Z,1028.67
2019-03-27T09:43:27.849Z,1028.66
2019-03-27T09:44:27.840Z,1028.66
2019-03-27T09:45:27.842Z,1028.66
2019-03-27T09:46:27.827Z,1028.71
2019-03-27T09:47:27.817Z,1028.68
2019-03-27T09:48:27.823Z,1028.66
2019-03-27T09:49:28.010Z,1028.64
2019-03-27T09:50:27.802Z,1028.65
2019-03-27T09:51:27.810Z,1028.57
2019-03-27T09:52:27.792Z,1028.63
2019-03-27T09:53:27.797Z,1028.67
2019-03-27T09:54:27.785Z,1028.64
2019-03-27T09:55:27.777Z,1028.67
2019-03-27T09:56:27.766Z,1028.68
2019-03-27T09:57:27.761Z,1028.68
2019-03-27T09:58:27.766Z,1028.71
2019-03-27T09:59:27.753Z,1028.71
2019-03-27T10:00:27.753Z,1028.73
2019-03-27T10:01:27.757Z,1028.75
2019-03-27T10:02:27.748Z,1028.74
2019-03-27T10:03:27.735Z,1028.74
2019-03-27T10:04:27.754Z,1028.75
2019-03-27T10:05:27.721Z,1028.71
2019-03-27T10:06:27.717Z,1028.70
2019-03-27T10:07:27.714Z,1028.72
2019-03-27T10:08:27.709Z,1028.68
2019-03-27T10:09:27.917Z,1028.65
2019-03-27T10:10:27.694Z,1028.66
2019-03-27T10:11:27.696Z,1028.67
2019-03-27T10:12:27.688Z,1028.65
2019-03-27T10:13:27.679Z,1028.65
2019-03-27T10:14:27.704Z,1028.69
2019-03-27T10:15:27.681Z,1028.70
2019-03-27T10:16:27.664Z,1028.71
2019-03-27T10:17:27.680Z,1028.72
2019-03-27T10:18:27.653Z,1028.73
2019-03-27T10:19:27.868Z,1028.73
2019-03-27T10:20:27.643Z,1028.73
2019-03-27T10:21:27.637Z,1028.76
2019-03-27T10:22:27.840Z,1028.67
2019-03-27T10:23:27.626Z,1028.68
2019-03-27T10:24:27.838Z,1028.71
2019-03-27T10:25:27.614Z,1028.69
2019-03-27T10:26:27.610Z,1028.71
2019-03-27T10:27:27.627Z,1028.66
2019-03-27T10:28:27.602Z,1028.67
2019-03-27T10:29:27.608Z,1028.67
2019-03-27T10:30:27.795Z,1028.69
2019-03-27T10:31:27.583Z,1028.70
2019-03-27T10:32:27.596Z,1028.72
2019-03-27T10:33:27.577Z,1028.77
2019-03-27T10:34:27.586Z,1028.75
2019-03-27T10:35:27.762Z,1028.76
2019-03-27T10:36:27.567Z,1028.79
2019-03-27T10:37:27.765Z,1028.80
2019-03-27T10:38:27.563Z,1028.78
2019-03-27T10:39:27.552Z,1028.80
2019-03-27T10:40:27.575Z,1028.79
2019-03-27T10:41:27.551Z,1028.80
2019-03-27T10:42:27.529Z,1028.79
2019-03-27T10:43:27.545Z,1028.81
2019-03-27T10:44:27.525Z,1028.77
2019-03-27T10:45:27.512Z,1028.74
2019-03-27T10:46:27.533Z,1028.76
2019-03-27T10:47:27.505Z,1028.79
2019-03-27T10:48:27.509Z,1028.78
2019-03-27T10:49:27.490Z,1028.79
2019-03-27T10:50:27.508Z,1028.84
2019-03-27T10:51:27.475Z,1028.81
2019-03-27T10:52:27.677Z,1028.83
2019-03-27T10:53:27.775Z,1028.83
2019-03-27T10:54:27.463Z,1028.82
2019-03-27T10:55:27.474Z,1028.84
2019-03-27T10:56:27.479Z,1028.87
2019-03-27T10:57:27.453Z,1028.85
2019-03-27T10:58:27.455Z,1028.82
2019-03-27T10:59:27.436Z,1028.81
2019-03-27T11:00:27.435Z,1028.83
2019-03-27T11:01:27.657Z,1028.82
2019-03-27T11:02:27.432Z,1028.84
2019-03-27T11:03:27.489Z,1028.85
2019-03-27T11:04:27.432Z,1028.82
2019-03-27T11:05:27.413Z,1028.82
2019-03-27T11:06:27.401Z,1028.83
2019-03-27T11:07:27.404Z,1028.85
2019-03-27T11:08:27.409Z,1028.86
2019-03-27T11:09:27.387Z,1028.83
2019-03-27T11:10:27.381Z,1028.80
2019-03-27T11:11:27.389Z,1028.82
2019-03-27T11:12:27.374Z,1028.82
2019-03-27T11:13:27.579Z,1028.81
2019-03-27T11:14:37.129Z,1028.76
2019-03-27T11:15:27.553Z,1028.77
2019-03-27T11:16:27.365Z,1028.72
2019-03-27T11:17:27.372Z,1028.78
2019-03-27T11:18:27.348Z,1028.72
2019-03-27T11:19:27.328Z,1028.72
2019-03-27T11:20:31.124Z,1028.73
2019-03-27T11:21:27.337Z,1028.75
2019-03-27T11:22:27.520Z,1028.76
2019-03-27T11:23:27.331Z,1028.74
2019-03-27T11:24:27.312Z,1028.73
2019-03-27T11:25:27.347Z,1028.74
2019-03-27T11:26:27.307Z,1028.75
2019-03-27T11:27:27.296Z,1028.68
2019-03-27T11:28:27.287Z,1028.70
2019-03-27T11:29:27.485Z,1028.67
2019-03-27T11:30:27.276Z,1028.64
2019-03-27T11:31:27.475Z,1028.66
2019-03-27T11:32:27.474Z,1028.67
2019-03-27T11:33:28.925Z,1028.70
2019-03-27T11:34:27.267Z,1028.65
2019-03-27T11:35:27.247Z,1028.67
2019-03-27T11:36:27.251Z,1028.68
2019-03-27T11:37:27.237Z,1028.62
2019-03-27T11:38:27.237Z,1028.63
2019-03-27T11:39:27.231Z,1028.62
2019-03-27T11:40:27.224Z,1028.60
2019-03-27T11:41:27.459Z,1028.60
2019-03-27T11:42:27.214Z,1028.59
2019-03-27T11:43:27.209Z,1028.54
2019-03-27T11:44:27.204Z,1028.57
2019-03-27T11:45:27.217Z,1028.58
2019-03-27T11:46:27.208Z,1028.58
2019-03-27T11:47:27.413Z,1028.60
2019-03-27T11:48:27.182Z,1028.59
2019-03-27T11:49:27.185Z,1028.59
2019-03-27T11:50:27.178Z,1028.59
2019-03-27T11:51:27.198Z,1028.60
2019-03-27T11:52:29.725Z,1028.61
2019-03-27T11:53:27.171Z,1028.60
2019-03-27T11:54:27.157Z,1028.63
2019-03-27T11:55:27.157Z,1028.69
2019-03-27T11:56:27.146Z,1028.69
2019-03-27T11:57:27.153Z,1028.69
2019-03-27T11:58:27.154Z,1028.66
2019-03-27T11:59:27.347Z,1028.69
2019-03-27T12:00:27.331Z,1028.69
2019-03-27T12:01:39.216Z,1028.71
2019-03-27T12:02:27.325Z,1028.77
2019-03-27T12:03:27.126Z,1028.70
2019-03-27T12:04:27.110Z,1028.73
2019-03-27T12:05:27.306Z,1028.72